Saint Columbans, Nebraska
Current Conditions -  °F | °C
As of 4:58 AM on Friday 28 Nov 2014 (Local Time) from KOFF Reporting Station
Clear Clear  
Wind Chill: 23°   Ceiling: Unl
Heat Index: 28°   Visibility: 10mi
Dew Point: 22°   Wind: 5mph
Humidity: 78%   Direction: 160°SSE
Pressure: 29.95"   Gusts: NA
Location:  41.1°N, 95.87°W
Report Text: KOFF 281058Z AUTO 16004KT 10SM CLR M02/M05 A2995 RMK AO2 SLP160 T10211054
Loading
Personal Weather Stations






























Interactive Weather Map New forecast layout! Learn more

10-Day Weather Forecast

Advertisements
Track Severe Weather on mobile